sensor_id;sensor_type;location;lat;lon;timestamp;P1;durP1;ratioP1;P2;durP2;ratioP2
6638;SDS011;3355;52.882;8.430;2023-09-19T00:00:06;4.67;;;3.47;;
6638;SDS011;3355;52.882;8.430;2023-09-19T00:02:34;5.23;;;3.73;;
6638;SDS011;3355;52.882;8.430;2023-09-19T00:05:01;4.50;;;3.30;;
6638;SDS011;3355;52.882;8.430;2023-09-19T00:07:30;4.83;;;3.27;;
6638;SDS011;3355;52.882;8.430;2023-09-19T00:09:56;4.30;;;3.73;;
6638;SDS011;3355;52.882;8.430;2023-09-19T00:12:24;3.97;;;3.43;;
6638;SDS011;3355;52.882;8.430;2023-09-19T00:14:50;4.40;;;3.43;;
6638;SDS011;3355;52.882;8.430;2023-09-19T00:17:19;4.73;;;3.40;;
6638;SDS011;3355;52.882;8.430;2023-09-19T00:19:45;10.93;;;3.57;;
6638;SDS011;3355;52.882;8.430;2023-09-19T00:22:16;6.67;;;3.27;;
6638;SDS011;3355;52.882;8.430;2023-09-19T00:24:43;3.93;;;2.93;;
6638;SDS011;3355;52.882;8.430;2023-09-19T00:27:11;8.33;;;2.90;;
6638;SDS011;3355;52.882;8.430;2023-09-19T00:29:37;7.43;;;3.43;;
6638;SDS011;3355;52.882;8.430;2023-09-19T00:32:04;8.83;;;4.17;;
6638;SDS011;3355;52.882;8.430;2023-09-19T00:34:35;4.17;;;2.60;;
6638;SDS011;3355;52.882;8.430;2023-09-19T00:37:01;6.70;;;2.40;;
6638;SDS011;3355;52.882;8.430;2023-09-19T00:39:28;6.53;;;2.90;;
6638;SDS011;3355;52.882;8.430;2023-09-19T00:41:56;3.53;;;2.03;;
6638;SDS011;3355;52.882;8.430;2023-09-19T00:44:23;9.27;;;2.53;;
6638;SDS011;3355;52.882;8.430;2023-09-19T00:46:49;6.67;;;2.70;;
6638;SDS011;3355;52.882;8.430;2023-09-19T00:49:16;4.43;;;2.50;;
6638;SDS011;3355;52.882;8.430;2023-09-19T00:51:47;8.10;;;2.20;;
6638;SDS011;3355;52.882;8.430;2023-09-19T00:54:13;2.97;;;2.40;;
6638;SDS011;3355;52.882;8.430;2023-09-19T00:56:43;5.87;;;2.67;;
6638;SDS011;3355;52.882;8.430;2023-09-19T00:59:11;5.90;;;3.17;;
6638;SDS011;3355;52.882;8.430;2023-09-19T01:01:38;4.10;;;2.73;;
6638;SDS011;3355;52.882;8.430;2023-09-19T01:04:05;5.47;;;2.57;;
6638;SDS011;3355;52.882;8.430;2023-09-19T01:06:32;6.40;;;2.17;;
6638;SDS011;3355;52.882;8.430;2023-09-19T01:09:00;3.00;;;1.67;;
6638;SDS011;3355;52.882;8.430;2023-09-19T01:11:31;3.10;;;1.20;;
6638;SDS011;3355;52.882;8.430;2023-09-19T01:14:02;2.60;;;1.40;;
6638;SDS011;3355;52.882;8.430;2023-09-19T01:16:40;3.20;;;1.20;;
6638;SDS011;3355;52.882;8.430;2023-09-19T01:19:19;2.50;;;1.30;;
6638;SDS011;3355;52.882;8.430;2023-09-19T01:21:54;2.77;;;0.90;;
6638;SDS011;3355;52.882;8.430;2023-09-19T01:27:36;2.77;;;1.37;;
6638;SDS011;3355;52.882;8.430;2023-09-19T01:30:18;2.10;;;1.17;;
6638;SDS011;3355;52.882;8.430;2023-09-19T01:32:49;2.90;;;1.83;;
6638;SDS011;3355;52.882;8.430;2023-09-19T01:35:17;1.87;;;1.10;;
6638;SDS011;3355;52.882;8.430;2023-09-19T01:37:44;2.03;;;1.20;;
6638;SDS011;3355;52.882;8.430;2023-09-19T01:40:12;2.00;;;1.47;;
6638;SDS011;3355;52.882;8.430;2023-09-19T01:42:43;4.17;;;1.43;;
6638;SDS011;3355;52.882;8.430;2023-09-19T01:45:12;1.80;;;1.10;;
6638;SDS011;3355;52.882;8.430;2023-09-19T01:47:43;2.37;;;1.60;;
6638;SDS011;3355;52.882;8.430;2023-09-19T01:50:17;3.00;;;1.17;;
6638;SDS011;3355;52.882;8.430;2023-09-19T01:52:47;2.00;;;1.00;;
6638;SDS011;3355;52.882;8.430;2023-09-19T01:55:15;5.13;;;1.30;;
6638;SDS011;3355;52.882;8.430;2023-09-19T01:57:46;3.20;;;0.93;;
6638;SDS011;3355;52.882;8.430;2023-09-19T02:00:16;2.40;;;1.20;;
6638;SDS011;3355;52.882;8.430;2023-09-19T02:02:47;3.37;;;1.27;;
6638;SDS011;3355;52.882;8.430;2023-09-19T02:05:14;3.50;;;1.37;;
6638;SDS011;3355;52.882;8.430;2023-09-19T02:07:48;4.03;;;1.37;;
6638;SDS011;3355;52.882;8.430;2023-09-19T02:10:17;2.93;;;1.77;;
6638;SDS011;3355;52.882;8.430;2023-09-19T02:12:45;1.93;;;1.40;;
6638;SDS011;3355;52.882;8.430;2023-09-19T02:15:12;2.70;;;1.43;;
6638;SDS011;3355;52.882;8.430;2023-09-19T02:17:40;3.63;;;1.20;;
6638;SDS011;3355;52.882;8.430;2023-09-19T02:20:10;6.43;;;1.53;;
6638;SDS011;3355;52.882;8.430;2023-09-19T02:22:40;4.10;;;1.77;;
6638;SDS011;3355;52.882;8.430;2023-09-19T02:25:07;2.20;;;1.30;;
6638;SDS011;3355;52.882;8.430;2023-09-19T02:27:34;3.13;;;1.40;;
6638;SDS011;3355;52.882;8.430;2023-09-19T02:30:01;4.33;;;1.70;;
6638;SDS011;3355;52.882;8.430;2023-09-19T02:32:29;3.13;;;1.37;;
6638;SDS011;3355;52.882;8.430;2023-09-19T02:34:56;4.17;;;1.40;;
6638;SDS011;3355;52.882;8.430;2023-09-19T02:37:25;6.10;;;2.27;;
6638;SDS011;3355;52.882;8.430;2023-09-19T02:39:52;6.47;;;1.73;;
6638;SDS011;3355;52.882;8.430;2023-09-19T02:42:19;4.57;;;1.50;;
6638;SDS011;3355;52.882;8.430;2023-09-19T02:44:46;3.23;;;2.07;;
6638;SDS011;3355;52.882;8.430;2023-09-19T02:47:13;4.60;;;1.50;;
6638;SDS011;3355;52.882;8.430;2023-09-19T02:49:40;3.30;;;1.33;;
6638;SDS011;3355;52.882;8.430;2023-09-19T02:52:07;2.80;;;1.40;;
6638;SDS011;3355;52.882;8.430;2023-09-19T02:54:37;3.20;;;1.93;;
6638;SDS011;3355;52.882;8.430;2023-09-19T02:57:04;3.20;;;1.67;;
6638;SDS011;3355;52.882;8.430;2023-09-19T02:59:32;4.13;;;1.83;;
6638;SDS011;3355;52.882;8.430;2023-09-19T03:02:02;2.73;;;1.67;;
6638;SDS011;3355;52.882;8.430;2023-09-19T03:04:29;2.83;;;1.60;;
6638;SDS011;3355;52.882;8.430;2023-09-19T03:06:56;5.03;;;1.60;;
6638;SDS011;3355;52.882;8.430;2023-09-19T03:09:25;10.53;;;2.50;;
6638;SDS011;3355;52.882;8.430;2023-09-19T03:11:53;3.60;;;1.70;;
6638;SDS011;3355;52.882;8.430;2023-09-19T03:14:20;2.87;;;1.80;;
6638;SDS011;3355;52.882;8.430;2023-09-19T03:16:48;4.43;;;1.97;;
6638;SDS011;3355;52.882;8.430;2023-09-19T03:19:15;5.63;;;2.10;;
6638;SDS011;3355;52.882;8.430;2023-09-19T03:21:42;3.60;;;2.03;;
6638;SDS011;3355;52.882;8.430;2023-09-19T03:24:08;5.13;;;2.20;;
6638;SDS011;3355;52.882;8.430;2023-09-19T03:26:36;2.40;;;1.30;;
6638;SDS011;3355;52.882;8.430;2023-09-19T03:29:04;5.33;;;2.10;;
6638;SDS011;3355;52.882;8.430;2023-09-19T03:31:33;2.93;;;1.93;;
6638;SDS011;3355;52.882;8.430;2023-09-19T03:34:02;3.10;;;2.00;;
6638;SDS011;3355;52.882;8.430;2023-09-19T03:36:29;6.47;;;2.43;;
6638;SDS011;3355;52.882;8.430;2023-09-19T03:38:56;3.93;;;1.93;;
6638;SDS011;3355;52.882;8.430;2023-09-19T03:41:23;4.87;;;2.37;;
6638;SDS011;3355;52.882;8.430;2023-09-19T03:43:49;2.73;;;1.60;;
6638;SDS011;3355;52.882;8.430;2023-09-19T03:46:17;6.67;;;2.80;;
6638;SDS011;3355;52.882;8.430;2023-09-19T03:48:44;5.80;;;2.13;;
6638;SDS011;3355;52.882;8.430;2023-09-19T03:51:11;3.80;;;1.57;;
6638;SDS011;3355;52.882;8.430;2023-09-19T03:53:37;5.33;;;1.97;;
6638;SDS011;3355;52.882;8.430;2023-09-19T03:56:04;6.83;;;2.20;;
6638;SDS011;3355;52.882;8.430;2023-09-19T03:58:31;3.27;;;2.20;;
6638;SDS011;3355;52.882;8.430;2023-09-19T04:00:59;6.57;;;2.40;;
6638;SDS011;3355;52.882;8.430;2023-09-19T04:03:27;5.07;;;1.70;;
6638;SDS011;3355;52.882;8.430;2023-09-19T04:06:00;4.03;;;2.17;;
6638;SDS011;3355;52.882;8.430;2023-09-19T04:08:27;4.30;;;2.23;;
6638;SDS011;3355;52.882;8.430;2023-09-19T04:10:54;5.30;;;2.10;;
6638;SDS011;3355;52.882;8.430;2023-09-19T04:13:21;4.10;;;1.80;;
6638;SDS011;3355;52.882;8.430;2023-09-19T04:15:48;5.17;;;2.00;;
6638;SDS011;3355;52.882;8.430;2023-09-19T04:18:15;6.30;;;2.63;;
6638;SDS011;3355;52.882;8.430;2023-09-19T04:20:48;6.93;;;2.57;;
6638;SDS011;3355;52.882;8.430;2023-09-19T04:23:15;5.30;;;2.40;;
6638;SDS011;3355;52.882;8.430;2023-09-19T04:25:42;4.20;;;2.20;;
6638;SDS011;3355;52.882;8.430;2023-09-19T04:28:08;7.03;;;2.60;;
6638;SDS011;3355;52.882;8.430;2023-09-19T04:30:36;4.90;;;2.13;;
6638;SDS011;3355;52.882;8.430;2023-09-19T04:33:05;4.47;;;2.23;;
6638;SDS011;3355;52.882;8.430;2023-09-19T04:35:32;6.63;;;2.97;;
6638;SDS011;3355;52.882;8.430;2023-09-19T04:38:01;13.73;;;3.20;;
6638;SDS011;3355;52.882;8.430;2023-09-19T04:40:28;6.00;;;2.70;;
6638;SDS011;3355;52.882;8.430;2023-09-19T04:42:55;4.73;;;2.23;;
6638;SDS011;3355;52.882;8.430;2023-09-19T04:45:23;6.83;;;2.53;;
6638;SDS011;3355;52.882;8.430;2023-09-19T04:47:50;6.67;;;2.23;;
6638;SDS011;3355;52.882;8.430;2023-09-19T04:50:16;6.40;;;2.40;;
6638;SDS011;3355;52.882;8.430;2023-09-19T04:52:43;8.77;;;2.73;;
6638;SDS011;3355;52.882;8.430;2023-09-19T04:55:12;9.00;;;3.23;;
6638;SDS011;3355;52.882;8.430;2023-09-19T04:57:41;10.60;;;2.80;;
6638;SDS011;3355;52.882;8.430;2023-09-19T05:00:10;4.43;;;2.60;;
6638;SDS011;3355;52.882;8.430;2023-09-19T05:02:40;6.40;;;2.37;;
6638;SDS011;3355;52.882;8.430;2023-09-19T05:05:06;11.03;;;3.50;;
6638;SDS011;3355;52.882;8.430;2023-09-19T05:07:35;5.90;;;2.90;;
6638;SDS011;3355;52.882;8.430;2023-09-19T05:10:01;4.53;;;2.20;;
6638;SDS011;3355;52.882;8.430;2023-09-19T05:12:31;4.07;;;2.53;;
6638;SDS011;3355;52.882;8.430;2023-09-19T05:14:59;4.27;;;2.37;;
6638;SDS011;3355;52.882;8.430;2023-09-19T05:17:26;9.67;;;2.37;;
6638;SDS011;3355;52.882;8.430;2023-09-19T05:19:53;5.43;;;2.80;;
6638;SDS011;3355;52.882;8.430;2023-09-19T05:22:19;4.27;;;3.00;;
6638;SDS011;3355;52.882;8.430;2023-09-19T05:24:46;5.63;;;2.87;;
6638;SDS011;3355;52.882;8.430;2023-09-19T05:27:13;6.97;;;2.30;;
6638;SDS011;3355;52.882;8.430;2023-09-19T05:29:43;6.53;;;2.97;;
6638;SDS011;3355;52.882;8.430;2023-09-19T05:32:09;4.70;;;2.90;;
6638;SDS011;3355;52.882;8.430;2023-09-19T05:34:36;7.03;;;3.70;;
6638;SDS011;3355;52.882;8.430;2023-09-19T05:37:03;4.53;;;2.60;;
6638;SDS011;3355;52.882;8.430;2023-09-19T05:39:30;4.90;;;3.10;;
6638;SDS011;3355;52.882;8.430;2023-09-19T05:41:56;7.87;;;2.87;;
6638;SDS011;3355;52.882;8.430;2023-09-19T05:44:25;5.37;;;2.83;;
6638;SDS011;3355;52.882;8.430;2023-09-19T05:46:53;8.90;;;2.70;;
6638;SDS011;3355;52.882;8.430;2023-09-19T05:49:21;11.23;;;2.50;;
6638;SDS011;3355;52.882;8.430;2023-09-19T05:51:49;6.37;;;2.47;;
6638;SDS011;3355;52.882;8.430;2023-09-19T05:54:18;4.30;;;2.40;;
6638;SDS011;3355;52.882;8.430;2023-09-19T05:56:46;5.37;;;2.20;;
6638;SDS011;3355;52.882;8.430;2023-09-19T05:59:13;7.07;;;2.17;;
6638;SDS011;3355;52.882;8.430;2023-09-19T06:01:41;6.53;;;2.50;;
6638;SDS011;3355;52.882;8.430;2023-09-19T06:04:09;8.30;;;3.40;;
6638;SDS011;3355;52.882;8.430;2023-09-19T06:06:36;4.60;;;2.40;;
6638;SDS011;3355;52.882;8.430;2023-09-19T06:09:05;10.50;;;2.90;;
6638;SDS011;3355;52.882;8.430;2023-09-19T06:11:34;8.70;;;2.80;;
6638;SDS011;3355;52.882;8.430;2023-09-19T06:14:00;4.80;;;2.57;;
6638;SDS011;3355;52.882;8.430;2023-09-19T06:16:27;10.03;;;2.60;;
6638;SDS011;3355;52.882;8.430;2023-09-19T06:18:54;6.23;;;3.07;;
6638;SDS011;3355;52.882;8.430;2023-09-19T06:21:22;4.63;;;2.33;;
6638;SDS011;3355;52.882;8.430;2023-09-19T06:23:49;5.63;;;2.60;;
6638;SDS011;3355;52.882;8.430;2023-09-19T06:26:15;12.87;;;3.07;;
6638;SDS011;3355;52.882;8.430;2023-09-19T06:28:42;9.37;;;2.80;;
6638;SDS011;3355;52.882;8.430;2023-09-19T06:31:09;6.47;;;2.70;;
6638;SDS011;3355;52.882;8.430;2023-09-19T06:33:35;5.20;;;2.53;;
6638;SDS011;3355;52.882;8.430;2023-09-19T06:36:04;6.33;;;2.30;;
6638;SDS011;3355;52.882;8.430;2023-09-19T06:38:32;8.53;;;2.67;;
6638;SDS011;3355;52.882;8.430;2023-09-19T06:41:01;5.10;;;2.23;;
6638;SDS011;3355;52.882;8.430;2023-09-19T06:43:29;6.73;;;2.50;;
6638;SDS011;3355;52.882;8.430;2023-09-19T06:45:57;7.93;;;2.70;;
6638;SDS011;3355;52.882;8.430;2023-09-19T06:48:24;6.20;;;2.47;;
6638;SDS011;3355;52.882;8.430;2023-09-19T06:50:52;6.97;;;2.57;;
6638;SDS011;3355;52.882;8.430;2023-09-19T06:53:20;7.17;;;2.60;;
6638;SDS011;3355;52.882;8.430;2023-09-19T06:55:50;8.10;;;2.00;;
6638;SDS011;3355;52.882;8.430;2023-09-19T06:58:17;7.73;;;2.37;;
6638;SDS011;3355;52.882;8.430;2023-09-19T07:00:44;10.93;;;3.40;;
6638;SDS011;3355;52.882;8.430;2023-09-19T07:03:12;6.60;;;2.63;;
6638;SDS011;3355;52.882;8.430;2023-09-19T07:05:41;5.00;;;2.37;;
6638;SDS011;3355;52.882;8.430;2023-09-19T07:08:09;5.20;;;2.23;;
6638;SDS011;3355;52.882;8.430;2023-09-19T07:10:37;5.37;;;3.00;;
6638;SDS011;3355;52.882;8.430;2023-09-19T07:13:07;7.47;;;2.13;;
6638;SDS011;3355;52.882;8.430;2023-09-19T07:15:36;7.17;;;2.57;;
6638;SDS011;3355;52.882;8.430;2023-09-19T07:18:04;8.00;;;2.57;;
6638;SDS011;3355;52.882;8.430;2023-09-19T07:20:31;4.87;;;2.47;;
6638;SDS011;3355;52.882;8.430;2023-09-19T07:22:59;10.13;;;2.63;;
6638;SDS011;3355;52.882;8.430;2023-09-19T07:25:26;3.87;;;2.03;;
6638;SDS011;3355;52.882;8.430;2023-09-19T07:27:54;8.57;;;2.20;;
6638;SDS011;3355;52.882;8.430;2023-09-19T07:30:26;10.03;;;2.97;;
6638;SDS011;3355;52.882;8.430;2023-09-19T07:32:53;7.87;;;1.80;;
6638;SDS011;3355;52.882;8.430;2023-09-19T07:35:20;5.40;;;1.67;;
6638;SDS011;3355;52.882;8.430;2023-09-19T07:37:46;5.27;;;1.97;;
6638;SDS011;3355;52.882;8.430;2023-09-19T07:40:14;5.47;;;1.80;;
6638;SDS011;3355;52.882;8.430;2023-09-19T07:42:41;5.63;;;2.50;;
6638;SDS011;3355;52.882;8.430;2023-09-19T07:45:09;4.60;;;2.13;;
6638;SDS011;3355;52.882;8.430;2023-09-19T07:47:43;6.53;;;2.07;;
6638;SDS011;3355;52.882;8.430;2023-09-19T07:50:10;6.70;;;1.97;;
6638;SDS011;3355;52.882;8.430;2023-09-19T07:52:36;9.10;;;2.40;;
6638;SDS011;3355;52.882;8.430;2023-09-19T07:55:04;5.53;;;2.37;;
6638;SDS011;3355;52.882;8.430;2023-09-19T07:57:34;4.83;;;2.00;;
6638;SDS011;3355;52.882;8.430;2023-09-19T08:00:01;4.40;;;1.50;;
6638;SDS011;3355;52.882;8.430;2023-09-19T08:02:34;4.73;;;2.47;;
6638;SDS011;3355;52.882;8.430;2023-09-19T08:05:03;4.13;;;2.27;;
6638;SDS011;3355;52.882;8.430;2023-09-19T08:07:31;7.40;;;2.10;;
6638;SDS011;3355;52.882;8.430;2023-09-19T08:09:58;8.33;;;3.20;;
6638;SDS011;3355;52.882;8.430;2023-09-19T08:12:24;4.70;;;1.90;;
6638;SDS011;3355;52.882;8.430;2023-09-19T08:14:51;5.20;;;2.70;;
6638;SDS011;3355;52.882;8.430;2023-09-19T08:17:20;4.50;;;1.90;;
6638;SDS011;3355;52.882;8.430;2023-09-19T08:19:47;3.20;;;1.70;;
6638;SDS011;3355;52.882;8.430;2023-09-19T08:22:19;6.83;;;2.30;;
6638;SDS011;3355;52.882;8.430;2023-09-19T08:24:46;7.20;;;3.27;;
6638;SDS011;3355;52.882;8.430;2023-09-19T08:27:13;5.90;;;1.83;;
6638;SDS011;3355;52.882;8.430;2023-09-19T08:29:43;7.03;;;2.90;;
6638;SDS011;3355;52.882;8.430;2023-09-19T08:32:10;4.87;;;1.60;;
6638;SDS011;3355;52.882;8.430;2023-09-19T08:34:36;4.93;;;1.90;;
6638;SDS011;3355;52.882;8.430;2023-09-19T08:37:03;5.23;;;2.00;;
6638;SDS011;3355;52.882;8.430;2023-09-19T08:39:32;4.80;;;1.73;;
6638;SDS011;3355;52.882;8.430;2023-09-19T08:42:00;7.37;;;2.57;;
6638;SDS011;3355;52.882;8.430;2023-09-19T08:44:27;5.07;;;2.03;;
6638;SDS011;3355;52.882;8.430;2023-09-19T08:46:58;9.30;;;2.00;;
6638;SDS011;3355;52.882;8.430;2023-09-19T08:49:32;5.33;;;1.93;;
6638;SDS011;3355;52.882;8.430;2023-09-19T08:52:04;3.40;;;1.83;;
6638;SDS011;3355;52.882;8.430;2023-09-19T08:54:35;3.80;;;1.70;;
6638;SDS011;3355;52.882;8.430;2023-09-19T08:57:05;5.67;;;2.63;;
6638;SDS011;3355;52.882;8.430;2023-09-19T08:59:33;3.73;;;1.70;;
6638;SDS011;3355;52.882;8.430;2023-09-19T09:02:01;4.03;;;1.80;;
6638;SDS011;3355;52.882;8.430;2023-09-19T09:04:29;5.50;;;2.40;;
6638;SDS011;3355;52.882;8.430;2023-09-19T09:06:56;3.10;;;1.47;;
6638;SDS011;3355;52.882;8.430;2023-09-19T09:09:23;8.47;;;2.70;;
6638;SDS011;3355;52.882;8.430;2023-09-19T09:11:51;3.40;;;1.50;;
6638;SDS011;3355;52.882;8.430;2023-09-19T09:14:18;8.40;;;1.70;;
6638;SDS011;3355;52.882;8.430;2023-09-19T09:16:46;3.63;;;1.57;;
6638;SDS011;3355;52.882;8.430;2023-09-19T09:19:13;8.87;;;1.47;;
6638;SDS011;3355;52.882;8.430;2023-09-19T09:21:45;4.60;;;1.77;;
6638;SDS011;3355;52.882;8.430;2023-09-19T09:24:28;2.87;;;1.90;;
6638;SDS011;3355;52.882;8.430;2023-09-19T09:26:57;3.73;;;1.97;;
6638;SDS011;3355;52.882;8.430;2023-09-19T09:32:16;4.20;;;1.70;;
6638;SDS011;3355;52.882;8.430;2023-09-19T09:34:45;5.20;;;1.70;;
6638;SDS011;3355;52.882;8.430;2023-09-19T09:37:12;8.47;;;1.80;;
6638;SDS011;3355;52.882;8.430;2023-09-19T09:39:48;3.97;;;2.13;;
6638;SDS011;3355;52.882;8.430;2023-09-19T09:42:30;6.30;;;1.73;;
6638;SDS011;3355;52.882;8.430;2023-09-19T09:45:16;5.40;;;1.70;;
6638;SDS011;3355;52.882;8.430;2023-09-19T09:47:45;6.20;;;1.90;;
6638;SDS011;3355;52.882;8.430;2023-09-19T09:50:25;4.30;;;2.37;;
6638;SDS011;3355;52.882;8.430;2023-09-19T09:52:54;3.37;;;1.53;;
6638;SDS011;3355;52.882;8.430;2023-09-19T09:55:32;4.17;;;1.57;;
6638;SDS011;3355;52.882;8.430;2023-09-19T09:58:27;3.43;;;1.50;;
6638;SDS011;3355;52.882;8.430;2023-09-19T10:00:56;5.13;;;1.53;;
6638;SDS011;3355;52.882;8.430;2023-09-19T10:03:33;7.23;;;2.40;;
6638;SDS011;3355;52.882;8.430;2023-09-19T10:24:09;10.90;;;2.60;;
6638;SDS011;3355;52.882;8.430;2023-09-19T10:26:37;6.30;;;2.60;;
6638;SDS011;3355;52.882;8.430;2023-09-19T10:29:08;5.40;;;2.30;;
6638;SDS011;3355;52.882;8.430;2023-09-19T10:36:49;4.57;;;2.27;;
6638;SDS011;3355;52.882;8.430;2023-09-19T10:39:19;5.97;;;2.03;;
6638;SDS011;3355;52.882;8.430;2023-09-19T10:41:47;3.37;;;1.73;;
6638;SDS011;3355;52.882;8.430;2023-09-19T10:44:23;6.50;;;2.67;;
6638;SDS011;3355;52.882;8.430;2023-09-19T10:46:52;7.37;;;3.17;;
6638;SDS011;3355;52.882;8.430;2023-09-19T10:49:22;5.23;;;2.23;;
6638;SDS011;3355;52.882;8.430;2023-09-19T10:51:53;4.33;;;2.23;;
6638;SDS011;3355;52.882;8.430;2023-09-19T10:57:33;5.53;;;2.50;;
6638;SDS011;3355;52.882;8.430;2023-09-19T12:04:59;5.87;;;2.30;;
6638;SDS011;3355;52.882;8.430;2023-09-19T12:07:26;5.23;;;2.27;;
6638;SDS011;3355;52.882;8.430;2023-09-19T12:10:02;4.37;;;2.10;;
6638;SDS011;3355;52.882;8.430;2023-09-19T12:12:29;3.97;;;1.97;;
6638;SDS011;3355;52.882;8.430;2023-09-19T12:14:57;3.37;;;1.40;;
6638;SDS011;3355;52.882;8.430;2023-09-19T12:17:34;4.83;;;2.23;;
6638;SDS011;3355;52.882;8.430;2023-09-19T12:20:03;4.03;;;2.00;;
6638;SDS011;3355;52.882;8.430;2023-09-19T12:22:39;6.23;;;2.60;;
6638;SDS011;3355;52.882;8.430;2023-09-19T12:25:06;4.00;;;1.80;;
6638;SDS011;3355;52.882;8.430;2023-09-19T12:27:40;3.67;;;1.83;;
6638;SDS011;3355;52.882;8.430;2023-09-19T12:30:09;5.93;;;1.80;;
6638;SDS011;3355;52.882;8.430;2023-09-19T12:32:39;4.87;;;2.03;;
6638;SDS011;3355;52.882;8.430;2023-09-19T12:35:07;6.93;;;2.40;;
6638;SDS011;3355;52.882;8.430;2023-09-19T12:37:36;5.50;;;2.20;;
6638;SDS011;3355;52.882;8.430;2023-09-19T12:40:04;9.73;;;2.33;;
6638;SDS011;3355;52.882;8.430;2023-09-19T12:42:40;4.83;;;2.60;;
6638;SDS011;3355;52.882;8.430;2023-09-19T12:45:08;5.77;;;2.00;;
6638;SDS011;3355;52.882;8.430;2023-09-19T12:47:35;5.87;;;2.23;;
6638;SDS011;3355;52.882;8.430;2023-09-19T12:50:12;4.47;;;2.40;;
6638;SDS011;3355;52.882;8.430;2023-09-19T12:52:42;3.70;;;2.20;;
6638;SDS011;3355;52.882;8.430;2023-09-19T12:55:21;4.03;;;2.07;;
6638;SDS011;3355;52.882;8.430;2023-09-19T12:57:55;5.87;;;2.73;;
6638;SDS011;3355;52.882;8.430;2023-09-19T13:00:33;8.30;;;2.50;;
6638;SDS011;3355;52.882;8.430;2023-09-19T13:03:11;6.30;;;2.30;;
6638;SDS011;3355;52.882;8.430;2023-09-19T13:05:52;4.87;;;1.90;;
6638;SDS011;3355;52.882;8.430;2023-09-19T13:08:21;4.17;;;2.00;;
6638;SDS011;3355;52.882;8.430;2023-09-19T13:13:46;3.77;;;1.83;;
6638;SDS011;3355;52.882;8.430;2023-09-19T13:16:16;6.97;;;2.57;;
6638;SDS011;3355;52.882;8.430;2023-09-19T13:18:47;4.60;;;1.50;;
6638;SDS011;3355;52.882;8.430;2023-09-19T13:21:27;3.97;;;2.10;;
6638;SDS011;3355;52.882;8.430;2023-09-19T13:26:45;5.53;;;2.37;;
6638;SDS011;3355;52.882;8.430;2023-09-19T13:29:12;3.73;;;1.70;;
6638;SDS011;3355;52.882;8.430;2023-09-19T13:31:42;4.87;;;2.10;;
6638;SDS011;3355;52.882;8.430;2023-09-19T13:34:12;5.50;;;1.90;;
6638;SDS011;3355;52.882;8.430;2023-09-19T13:36:42;3.00;;;1.20;;
6638;SDS011;3355;52.882;8.430;2023-09-19T13:39:08;3.80;;;2.33;;
6638;SDS011;3355;52.882;8.430;2023-09-19T13:41:35;5.73;;;2.00;;
6638;SDS011;3355;52.882;8.430;2023-09-19T13:44:01;4.50;;;1.80;;
6638;SDS011;3355;52.882;8.430;2023-09-19T13:46:29;3.70;;;1.77;;
6638;SDS011;3355;52.882;8.430;2023-09-19T13:49:00;2.67;;;1.40;;
6638;SDS011;3355;52.882;8.430;2023-09-19T13:51:28;7.77;;;1.97;;
6638;SDS011;3355;52.882;8.430;2023-09-19T13:53:56;4.47;;;2.33;;
6638;SDS011;3355;52.882;8.430;2023-09-19T13:56:24;4.47;;;2.13;;
6638;SDS011;3355;52.882;8.430;2023-09-19T13:58:52;3.93;;;1.90;;
6638;SDS011;3355;52.882;8.430;2023-09-19T14:01:19;6.53;;;3.10;;
6638;SDS011;3355;52.882;8.430;2023-09-19T14:03:46;6.07;;;2.03;;
6638;SDS011;3355;52.882;8.430;2023-09-19T14:06:14;6.80;;;2.20;;
6638;SDS011;3355;52.882;8.430;2023-09-19T14:08:41;4.10;;;2.00;;
6638;SDS011;3355;52.882;8.430;2023-09-19T14:11:09;3.77;;;1.70;;
6638;SDS011;3355;52.882;8.430;2023-09-19T14:13:35;5.50;;;2.50;;
6638;SDS011;3355;52.882;8.430;2023-09-19T14:16:02;5.17;;;1.53;;
6638;SDS011;3355;52.882;8.430;2023-09-19T14:18:30;7.93;;;1.80;;
6638;SDS011;3355;52.882;8.430;2023-09-19T14:20:56;3.67;;;1.90;;
6638;SDS011;3355;52.882;8.430;2023-09-19T14:23:23;3.83;;;1.73;;
6638;SDS011;3355;52.882;8.430;2023-09-19T14:25:51;3.70;;;1.70;;
6638;SDS011;3355;52.882;8.430;2023-09-19T14:28:20;3.60;;;1.83;;
6638;SDS011;3355;52.882;8.430;2023-09-19T14:30:46;4.00;;;1.63;;
6638;SDS011;3355;52.882;8.430;2023-09-19T14:33:14;2.70;;;1.70;;
6638;SDS011;3355;52.882;8.430;2023-09-19T14:35:41;5.70;;;1.70;;
6638;SDS011;3355;52.882;8.430;2023-09-19T14:38:07;3.37;;;2.10;;
6638;SDS011;3355;52.882;8.430;2023-09-19T14:40:34;3.30;;;1.63;;
6638;SDS011;3355;52.882;8.430;2023-09-19T14:43:01;4.20;;;2.10;;
6638;SDS011;3355;52.882;8.430;2023-09-19T14:45:29;3.40;;;1.83;;
6638;SDS011;3355;52.882;8.430;2023-09-19T14:47:56;3.43;;;1.37;;
6638;SDS011;3355;52.882;8.430;2023-09-19T14:50:23;2.00;;;1.23;;
6638;SDS011;3355;52.882;8.430;2023-09-19T14:52:49;4.27;;;1.90;;
6638;SDS011;3355;52.882;8.430;2023-09-19T14:55:17;2.47;;;1.53;;
6638;SDS011;3355;52.882;8.430;2023-09-19T14:57:48;3.13;;;1.30;;
6638;SDS011;3355;52.882;8.430;2023-09-19T15:00:16;5.40;;;2.23;;
6638;SDS011;3355;52.882;8.430;2023-09-19T15:02:47;4.53;;;1.80;;
6638;SDS011;3355;52.882;8.430;2023-09-19T15:05:15;6.47;;;1.90;;
6638;SDS011;3355;52.882;8.430;2023-09-19T15:07:41;3.13;;;1.90;;
6638;SDS011;3355;52.882;8.430;2023-09-19T15:10:08;7.37;;;2.50;;
6638;SDS011;3355;52.882;8.430;2023-09-19T15:12:35;3.00;;;1.30;;
6638;SDS011;3355;52.882;8.430;2023-09-19T15:15:03;6.47;;;2.30;;
6638;SDS011;3355;52.882;8.430;2023-09-19T15:17:30;5.90;;;1.80;;
6638;SDS011;3355;52.882;8.430;2023-09-19T15:19:58;4.03;;;1.63;;
6638;SDS011;3355;52.882;8.430;2023-09-19T15:22:25;4.13;;;1.67;;
6638;SDS011;3355;52.882;8.430;2023-09-19T15:24:51;5.43;;;1.50;;
6638;SDS011;3355;52.882;8.430;2023-09-19T15:27:18;4.10;;;1.50;;
6638;SDS011;3355;52.882;8.430;2023-09-19T15:29:44;3.03;;;1.70;;
6638;SDS011;3355;52.882;8.430;2023-09-19T15:32:11;3.87;;;1.93;;
6638;SDS011;3355;52.882;8.430;2023-09-19T15:34:38;4.93;;;2.07;;
6638;SDS011;3355;52.882;8.430;2023-09-19T15:37:06;7.63;;;1.47;;
6638;SDS011;3355;52.882;8.430;2023-09-19T15:39:32;3.77;;;1.63;;
6638;SDS011;3355;52.882;8.430;2023-09-19T15:41:59;5.37;;;2.60;;
6638;SDS011;3355;52.882;8.430;2023-09-19T15:44:26;3.97;;;1.70;;
6638;SDS011;3355;52.882;8.430;2023-09-19T15:46:52;5.20;;;2.00;;
6638;SDS011;3355;52.882;8.430;2023-09-19T15:49:19;4.63;;;1.60;;
6638;SDS011;3355;52.882;8.430;2023-09-19T15:51:45;3.40;;;1.73;;
6638;SDS011;3355;52.882;8.430;2023-09-19T15:54:16;4.10;;;1.60;;
6638;SDS011;3355;52.882;8.430;2023-09-19T15:56:43;4.90;;;2.03;;
6638;SDS011;3355;52.882;8.430;2023-09-19T15:59:12;3.30;;;1.60;;
6638;SDS011;3355;52.882;8.430;2023-09-19T16:01:38;2.40;;;1.43;;
6638;SDS011;3355;52.882;8.430;2023-09-19T16:04:05;3.97;;;1.60;;
6638;SDS011;3355;52.882;8.430;2023-09-19T16:06:33;4.77;;;1.50;;
6638;SDS011;3355;52.882;8.430;2023-09-19T16:09:00;4.50;;;1.60;;
6638;SDS011;3355;52.882;8.430;2023-09-19T16:11:31;2.80;;;1.57;;
6638;SDS011;3355;52.882;8.430;2023-09-19T16:13:58;2.90;;;1.67;;
6638;SDS011;3355;52.882;8.430;2023-09-19T16:16:26;5.43;;;1.73;;
6638;SDS011;3355;52.882;8.430;2023-09-19T16:18:55;4.47;;;1.90;;
6638;SDS011;3355;52.882;8.430;2023-09-19T16:21:24;4.47;;;1.60;;
6638;SDS011;3355;52.882;8.430;2023-09-19T16:23:52;3.80;;;1.80;;
6638;SDS011;3355;52.882;8.430;2023-09-19T16:26:19;2.70;;;1.37;;
6638;SDS011;3355;52.882;8.430;2023-09-19T16:28:49;4.33;;;1.50;;
6638;SDS011;3355;52.882;8.430;2023-09-19T16:31:16;3.80;;;1.70;;
6638;SDS011;3355;52.882;8.430;2023-09-19T16:33:43;2.80;;;1.30;;
6638;SDS011;3355;52.882;8.430;2023-09-19T16:36:11;4.80;;;1.77;;
6638;SDS011;3355;52.882;8.430;2023-09-19T16:38:40;2.60;;;2.00;;
6638;SDS011;3355;52.882;8.430;2023-09-19T16:41:07;5.53;;;1.37;;
6638;SDS011;3355;52.882;8.430;2023-09-19T16:43:34;3.93;;;1.37;;
6638;SDS011;3355;52.882;8.430;2023-09-19T16:46:03;3.10;;;0.93;;
6638;SDS011;3355;52.882;8.430;2023-09-19T16:48:33;4.83;;;1.57;;
6638;SDS011;3355;52.882;8.430;2023-09-19T16:51:01;2.80;;;1.40;;
6638;SDS011;3355;52.882;8.430;2023-09-19T16:53:29;2.40;;;1.60;;
6638;SDS011;3355;52.882;8.430;2023-09-19T16:56:00;4.63;;;1.80;;
6638;SDS011;3355;52.882;8.430;2023-09-19T16:58:27;2.53;;;1.00;;
6638;SDS011;3355;52.882;8.430;2023-09-19T17:00:54;1.83;;;1.20;;
6638;SDS011;3355;52.882;8.430;2023-09-19T17:03:22;2.50;;;1.50;;
6638;SDS011;3355;52.882;8.430;2023-09-19T17:05:49;3.13;;;1.40;;